sensor_id;sensor_type;location;lat;lon;timestamp;P1;durP1;ratioP1;P2;durP2;ratioP2
35257;SDS011;21385;50.878;8.050;2023-02-28T00:00:22;0.50;;;0.40;;
35257;SDS011;21385;50.878;8.050;2023-02-28T00:02:48;0.40;;;0.40;;
35257;SDS011;21385;50.878;8.050;2023-02-28T00:05:15;0.45;;;0.38;;
35257;SDS011;21385;50.878;8.050;2023-02-28T00:07:43;0.20;;;0.20;;
35257;SDS011;21385;50.878;8.050;2023-02-28T00:10:10;0.93;;;0.88;;
35257;SDS011;21385;50.878;8.050;2023-02-28T00:12:38;0.73;;;0.73;;
35257;SDS011;21385;50.878;8.050;2023-02-28T00:15:07;0.40;;;0.35;;
35257;SDS011;21385;50.878;8.050;2023-02-28T00:17:34;0.77;;;0.52;;
35257;SDS011;21385;50.878;8.050;2023-02-28T00:20:00;0.40;;;0.40;;
35257;SDS011;21385;50.878;8.050;2023-02-28T00:22:37;0.25;;;0.25;;
35257;SDS011;21385;50.878;8.050;2023-02-28T00:25:04;1.30;;;0.80;;
35257;SDS011;21385;50.878;8.050;2023-02-28T00:27:31;0.08;;;0.08;;
35257;SDS011;21385;50.878;8.050;2023-02-28T00:29:57;0.60;;;0.60;;
35257;SDS011;21385;50.878;8.050;2023-02-28T00:32:23;0.32;;;0.32;;
35257;SDS011;21385;50.878;8.050;2023-02-28T00:34:48;0.40;;;0.40;;
35257;SDS011;21385;50.878;8.050;2023-02-28T00:37:14;0.40;;;0.35;;
35257;SDS011;21385;50.878;8.050;2023-02-28T00:39:40;8.02;;;0.80;;
35257;SDS011;21385;50.878;8.050;2023-02-28T00:42:06;0.40;;;0.35;;
35257;SDS011;21385;50.878;8.050;2023-02-28T00:44:32;0.10;;;0.10;;
35257;SDS011;21385;50.878;8.050;2023-02-28T00:46:58;0.30;;;0.30;;
35257;SDS011;21385;50.878;8.050;2023-02-28T00:49:25;0.80;;;0.80;;
35257;SDS011;21385;50.878;8.050;2023-02-28T00:51:51;0.55;;;0.50;;
35257;SDS011;21385;50.878;8.050;2023-02-28T00:54:18;1.00;;;0.95;;
35257;SDS011;21385;50.878;8.050;2023-02-28T00:56:43;0.47;;;0.47;;
35257;SDS011;21385;50.878;8.050;2023-02-28T00:59:10;0.40;;;0.40;;
35257;SDS011;21385;50.878;8.050;2023-02-28T01:01:37;0.47;;;0.30;;
35257;SDS011;21385;50.878;8.050;2023-02-28T01:04:03;0.60;;;0.50;;
35257;SDS011;21385;50.878;8.050;2023-02-28T01:06:29;1.10;;;0.77;;
35257;SDS011;21385;50.878;8.050;2023-02-28T01:08:55;0.17;;;0.17;;
35257;SDS011;21385;50.878;8.050;2023-02-28T01:11:21;0.45;;;0.45;;
35257;SDS011;21385;50.878;8.050;2023-02-28T01:13:46;0.10;;;0.10;;
35257;SDS011;21385;50.878;8.050;2023-02-28T01:16:13;0.17;;;0.17;;
35257;SDS011;21385;50.878;8.050;2023-02-28T01:18:39;0.35;;;0.30;;
35257;SDS011;21385;50.878;8.050;2023-02-28T01:21:05;0.77;;;0.77;;
35257;SDS011;21385;50.878;8.050;2023-02-28T01:23:36;0.20;;;0.17;;
35257;SDS011;21385;50.878;8.050;2023-02-28T01:26:08;0.55;;;0.55;;
35257;SDS011;21385;50.878;8.050;2023-02-28T01:28:35;1.63;;;0.70;;
35257;SDS011;21385;50.878;8.050;2023-02-28T01:31:02;3.70;;;0.63;;
35257;SDS011;21385;50.878;8.050;2023-02-28T01:33:27;2.15;;;0.55;;
35257;SDS011;21385;50.878;8.050;2023-02-28T01:38:26;0.40;;;0.40;;
35257;SDS011;21385;50.878;8.050;2023-02-28T01:40:52;0.08;;;0.08;;
35257;SDS011;21385;50.878;8.050;2023-02-28T01:43:20;0.63;;;0.40;;
35257;SDS011;21385;50.878;8.050;2023-02-28T01:45:54;0.73;;;0.73;;
35257;SDS011;21385;50.878;8.050;2023-02-28T01:48:22;0.70;;;0.65;;
35257;SDS011;21385;50.878;8.050;2023-02-28T01:50:54;0.28;;;0.20;;
35257;SDS011;21385;50.878;8.050;2023-02-28T01:53:26;0.47;;;0.40;;
35257;SDS011;21385;50.878;8.050;2023-02-28T01:55:59;1.42;;;0.68;;
35257;SDS011;21385;50.878;8.050;2023-02-28T01:58:25;0.20;;;0.20;;
35257;SDS011;21385;50.878;8.050;2023-02-28T02:00:51;1.45;;;0.65;;
35257;SDS011;21385;50.878;8.050;2023-02-28T02:03:17;0.55;;;0.55;;
35257;SDS011;21385;50.878;8.050;2023-02-28T02:05:45;0.30;;;0.30;;
35257;SDS011;21385;50.878;8.050;2023-02-28T02:08:16;0.57;;;0.40;;
35257;SDS011;21385;50.878;8.050;2023-02-28T02:10:48;0.20;;;0.20;;
35257;SDS011;21385;50.878;8.050;2023-02-28T02:16:14;0.77;;;0.28;;
35257;SDS011;21385;50.878;8.050;2023-02-28T02:24:39;0.47;;;0.47;;
35257;SDS011;21385;50.878;8.050;2023-02-28T02:27:20;0.38;;;0.17;;
35257;SDS011;21385;50.878;8.050;2023-02-28T02:32:42;0.52;;;0.32;;
35257;SDS011;21385;50.878;8.050;2023-02-28T02:38:40;0.32;;;0.32;;
35257;SDS011;21385;50.878;8.050;2023-02-28T02:44:21;1.35;;;1.25;;
35257;SDS011;21385;50.878;8.050;2023-02-28T02:47:06;0.38;;;0.17;;
35257;SDS011;21385;50.878;8.050;2023-02-28T02:49:35;0.30;;;0.30;;
35257;SDS011;21385;50.878;8.050;2023-02-28T02:52:04;0.00;;;0.00;;
35257;SDS011;21385;50.878;8.050;2023-02-28T02:54:40;1.25;;;0.35;;
35257;SDS011;21385;50.878;8.050;2023-02-28T02:57:17;1.38;;;0.77;;
35257;SDS011;21385;50.878;8.050;2023-02-28T02:59:48;0.30;;;0.28;;
35257;SDS011;21385;50.878;8.050;2023-02-28T03:02:16;0.43;;;0.40;;
35257;SDS011;21385;50.878;8.050;2023-02-28T03:04:44;0.38;;;0.38;;
35257;SDS011;21385;50.878;8.050;2023-02-28T03:07:13;0.20;;;0.20;;
35257;SDS011;21385;50.878;8.050;2023-02-28T03:09:39;1.15;;;1.05;;
35257;SDS011;21385;50.878;8.050;2023-02-28T03:12:06;0.17;;;0.17;;
35257;SDS011;21385;50.878;8.050;2023-02-28T03:14:51;0.20;;;0.20;;
35257;SDS011;21385;50.878;8.050;2023-02-28T03:26:50;0.20;;;0.20;;
35257;SDS011;21385;50.878;8.050;2023-02-28T03:29:26;0.28;;;0.25;;
35257;SDS011;21385;50.878;8.050;2023-02-28T03:31:59;0.17;;;0.10;;
35257;SDS011;21385;50.878;8.050;2023-02-28T03:34:40;0.40;;;0.30;;
35257;SDS011;21385;50.878;8.050;2023-02-28T03:37:12;0.90;;;0.77;;
35257;SDS011;21385;50.878;8.050;2023-02-28T03:39:43;0.20;;;0.20;;
35257;SDS011;21385;50.878;8.050;2023-02-28T03:42:15;0.45;;;0.45;;
35257;SDS011;21385;50.878;8.050;2023-02-28T03:44:45;0.85;;;0.38;;
35257;SDS011;21385;50.878;8.050;2023-02-28T03:47:35;0.50;;;0.50;;
35257;SDS011;21385;50.878;8.050;2023-02-28T03:53:06;0.40;;;0.40;;
35257;SDS011;21385;50.878;8.050;2023-02-28T03:55:56;0.30;;;0.30;;
35257;SDS011;21385;50.878;8.050;2023-02-28T04:01:15;0.38;;;0.38;;
35257;SDS011;21385;50.878;8.050;2023-02-28T04:03:47;0.30;;;0.30;;
35257;SDS011;21385;50.878;8.050;2023-02-28T04:06:15;0.20;;;0.20;;
35257;SDS011;21385;50.878;8.050;2023-02-28T04:08:43;3.53;;;0.30;;
35257;SDS011;21385;50.878;8.050;2023-02-28T04:11:52;0.10;;;0.10;;
35257;SDS011;21385;50.878;8.050;2023-02-28T04:14:00;0.30;;;0.30;;
35257;SDS011;21385;50.878;8.050;2023-02-28T04:16:27;0.30;;;0.30;;
35257;SDS011;21385;50.878;8.050;2023-02-28T04:18:53;0.52;;;0.52;;
35257;SDS011;21385;50.878;8.050;2023-02-28T04:21:18;0.28;;;0.28;;
35257;SDS011;21385;50.878;8.050;2023-02-28T04:23:47;1.27;;;0.50;;
35257;SDS011;21385;50.878;8.050;2023-02-28T04:26:12;4.97;;;0.50;;
35257;SDS011;21385;50.878;8.050;2023-02-28T04:28:38;0.22;;;0.22;;
35257;SDS011;21385;50.878;8.050;2023-02-28T04:31:04;0.17;;;0.17;;
35257;SDS011;21385;50.878;8.050;2023-02-28T04:33:30;0.40;;;0.40;;
35257;SDS011;21385;50.878;8.050;2023-02-28T04:36:04;0.22;;;0.22;;
35257;SDS011;21385;50.878;8.050;2023-02-28T04:38:32;9.32;;;1.02;;
35257;SDS011;21385;50.878;8.050;2023-02-28T04:41:03;7.20;;;0.80;;
35257;SDS011;21385;50.878;8.050;2023-02-28T04:43:29;0.47;;;0.43;;
35257;SDS011;21385;50.878;8.050;2023-02-28T04:45:55;0.65;;;0.45;;
35257;SDS011;21385;50.878;8.050;2023-02-28T04:48:24;1.00;;;0.30;;
35257;SDS011;21385;50.878;8.050;2023-02-28T04:50:51;0.40;;;0.40;;
35257;SDS011;21385;50.878;8.050;2023-02-28T04:53:17;1.90;;;0.40;;
35257;SDS011;21385;50.878;8.050;2023-02-28T04:55:43;0.20;;;0.20;;
35257;SDS011;21385;50.878;8.050;2023-02-28T04:58:09;1.27;;;0.38;;
35257;SDS011;21385;50.878;8.050;2023-02-28T05:00:35;1.15;;;0.35;;
35257;SDS011;21385;50.878;8.050;2023-02-28T05:03:01;0.38;;;0.30;;
35257;SDS011;21385;50.878;8.050;2023-02-28T05:05:26;0.50;;;0.50;;
35257;SDS011;21385;50.878;8.050;2023-02-28T05:07:52;0.08;;;0.08;;
35257;SDS011;21385;50.878;8.050;2023-02-28T05:10:20;0.47;;;0.47;;
35257;SDS011;21385;50.878;8.050;2023-02-28T05:12:46;0.40;;;0.40;;
35257;SDS011;21385;50.878;8.050;2023-02-28T05:15:13;0.35;;;0.35;;
35257;SDS011;21385;50.878;8.050;2023-02-28T05:17:40;0.20;;;0.20;;
35257;SDS011;21385;50.878;8.050;2023-02-28T05:20:06;0.20;;;0.20;;
35257;SDS011;21385;50.878;8.050;2023-02-28T05:22:33;0.38;;;0.38;;
35257;SDS011;21385;50.878;8.050;2023-02-28T05:24:59;0.22;;;0.22;;
35257;SDS011;21385;50.878;8.050;2023-02-28T05:27:25;0.30;;;0.30;;
35257;SDS011;21385;50.878;8.050;2023-02-28T05:29:50;0.30;;;0.30;;
35257;SDS011;21385;50.878;8.050;2023-02-28T05:32:16;0.32;;;0.30;;
35257;SDS011;21385;50.878;8.050;2023-02-28T05:34:41;2.60;;;0.68;;
35257;SDS011;21385;50.878;8.050;2023-02-28T05:37:13;0.57;;;0.43;;
35257;SDS011;21385;50.878;8.050;2023-02-28T05:39:40;1.33;;;1.10;;
35257;SDS011;21385;50.878;8.050;2023-02-28T05:42:06;1.17;;;1.08;;
35257;SDS011;21385;50.878;8.050;2023-02-28T05:44:33;0.80;;;0.80;;
35257;SDS011;21385;50.878;8.050;2023-02-28T05:46:58;0.43;;;0.43;;
35257;SDS011;21385;50.878;8.050;2023-02-28T05:49:24;1.35;;;1.00;;
35257;SDS011;21385;50.878;8.050;2023-02-28T05:51:50;0.63;;;0.63;;
35257;SDS011;21385;50.878;8.050;2023-02-28T05:54:15;0.63;;;0.63;;
35257;SDS011;21385;50.878;8.050;2023-02-28T05:56:41;0.73;;;0.73;;
35257;SDS011;21385;50.878;8.050;2023-02-28T05:59:09;0.68;;;0.68;;
35257;SDS011;21385;50.878;8.050;2023-02-28T06:01:36;0.98;;;0.88;;
35257;SDS011;21385;50.878;8.050;2023-02-28T06:04:03;0.75;;;0.68;;
35257;SDS011;21385;50.878;8.050;2023-02-28T06:06:30;0.80;;;0.80;;
35257;SDS011;21385;50.878;8.050;2023-02-28T06:08:56;0.90;;;0.90;;
35257;SDS011;21385;50.878;8.050;2023-02-28T06:11:22;0.70;;;0.70;;
35257;SDS011;21385;50.878;8.050;2023-02-28T06:13:53;0.90;;;0.88;;
35257;SDS011;21385;50.878;8.050;2023-02-28T06:16:23;0.47;;;0.47;;
35257;SDS011;21385;50.878;8.050;2023-02-28T06:18:49;0.52;;;0.52;;
35257;SDS011;21385;50.878;8.050;2023-02-28T06:21:14;0.95;;;0.88;;
35257;SDS011;21385;50.878;8.050;2023-02-28T06:23:40;0.85;;;0.82;;
35257;SDS011;21385;50.878;8.050;2023-02-28T06:26:05;1.38;;;1.27;;
35257;SDS011;21385;50.878;8.050;2023-02-28T06:28:31;2.45;;;2.00;;
35257;SDS011;21385;50.878;8.050;2023-02-28T06:30:57;1.90;;;1.70;;
35257;SDS011;21385;50.878;8.050;2023-02-28T06:33:25;0.77;;;0.77;;
35257;SDS011;21385;50.878;8.050;2023-02-28T06:35:51;2.03;;;1.85;;
35257;SDS011;21385;50.878;8.050;2023-02-28T06:38:17;2.10;;;1.67;;
35257;SDS011;21385;50.878;8.050;2023-02-28T06:40:43;5.00;;;1.17;;
35257;SDS011;21385;50.878;8.050;2023-02-28T06:43:09;0.60;;;0.55;;
35257;SDS011;21385;50.878;8.050;2023-02-28T06:45:40;2.30;;;1.42;;
35257;SDS011;21385;50.878;8.050;2023-02-28T06:48:07;1.17;;;0.75;;
35257;SDS011;21385;50.878;8.050;2023-02-28T06:50:32;1.45;;;1.35;;
35257;SDS011;21385;50.878;8.050;2023-02-28T06:52:58;5.13;;;1.92;;
35257;SDS011;21385;50.878;8.050;2023-02-28T06:55:24;1.70;;;1.50;;
35257;SDS011;21385;50.878;8.050;2023-02-28T06:57:49;1.42;;;1.33;;
35257;SDS011;21385;50.878;8.050;2023-02-28T07:00:15;2.33;;;2.13;;
35257;SDS011;21385;50.878;8.050;2023-02-28T07:02:41;2.10;;;2.00;;
35257;SDS011;21385;50.878;8.050;2023-02-28T07:05:07;2.05;;;1.60;;
35257;SDS011;21385;50.878;8.050;2023-02-28T07:07:33;0.80;;;0.68;;
35257;SDS011;21385;50.878;8.050;2023-02-28T07:10:00;0.50;;;0.50;;
35257;SDS011;21385;50.878;8.050;2023-02-28T07:12:26;0.20;;;0.20;;
35257;SDS011;21385;50.878;8.050;2023-02-28T07:14:52;0.30;;;0.30;;
35257;SDS011;21385;50.878;8.050;2023-02-28T07:17:19;2.55;;;0.80;;
35257;SDS011;21385;50.878;8.050;2023-02-28T07:19:44;0.57;;;0.47;;
35257;SDS011;21385;50.878;8.050;2023-02-28T07:22:10;0.35;;;0.30;;
35257;SDS011;21385;50.878;8.050;2023-02-28T07:24:36;0.20;;;0.20;;
35257;SDS011;21385;50.878;8.050;2023-02-28T07:27:01;0.20;;;0.20;;
35257;SDS011;21385;50.878;8.050;2023-02-28T07:29:27;0.20;;;0.20;;
35257;SDS011;21385;50.878;8.050;2023-02-28T07:31:53;0.00;;;0.00;;
35257;SDS011;21385;50.878;8.050;2023-02-28T07:34:19;0.93;;;0.55;;
35257;SDS011;21385;50.878;8.050;2023-02-28T07:36:45;1.25;;;0.30;;
35257;SDS011;21385;50.878;8.050;2023-02-28T07:39:10;0.85;;;0.30;;
35257;SDS011;21385;50.878;8.050;2023-02-28T07:41:36;0.40;;;0.35;;
35257;SDS011;21385;50.878;8.050;2023-02-28T07:44:08;0.22;;;0.22;;
35257;SDS011;21385;50.878;8.050;2023-02-28T07:46:34;0.05;;;0.05;;
35257;SDS011;21385;50.878;8.050;2023-02-28T07:49:01;0.65;;;0.25;;
35257;SDS011;21385;50.878;8.050;2023-02-28T07:51:28;0.00;;;0.00;;
35257;SDS011;21385;50.878;8.050;2023-02-28T07:53:54;0.30;;;0.30;;
35257;SDS011;21385;50.878;8.050;2023-02-28T07:56:20;0.10;;;0.10;;
35257;SDS011;21385;50.878;8.050;2023-02-28T07:58:46;7.07;;;0.60;;
35257;SDS011;21385;50.878;8.050;2023-02-28T08:01:11;0.32;;;0.10;;
35257;SDS011;21385;50.878;8.050;2023-02-28T08:03:38;0.30;;;0.30;;
35257;SDS011;21385;50.878;8.050;2023-02-28T08:06:05;0.43;;;0.35;;
35257;SDS011;21385;50.878;8.050;2023-02-28T08:08:32;0.17;;;0.15;;
35257;SDS011;21385;50.878;8.050;2023-02-28T08:10:59;0.25;;;0.22;;
35257;SDS011;21385;50.878;8.050;2023-02-28T08:13:26;3.72;;;0.55;;
35257;SDS011;21385;50.878;8.050;2023-02-28T08:15:53;0.10;;;0.05;;
35257;SDS011;21385;50.878;8.050;2023-02-28T08:18:19;0.17;;;0.17;;
35257;SDS011;21385;50.878;8.050;2023-02-28T08:20:46;5.18;;;0.90;;
35257;SDS011;21385;50.878;8.050;2023-02-28T08:23:12;0.65;;;0.45;;
35257;SDS011;21385;50.878;8.050;2023-02-28T08:25:37;0.03;;;0.03;;
35257;SDS011;21385;50.878;8.050;2023-02-28T08:28:03;0.13;;;0.13;;
35257;SDS011;21385;50.878;8.050;2023-02-28T08:30:29;0.50;;;0.50;;
35257;SDS011;21385;50.878;8.050;2023-02-28T08:32:54;0.60;;;0.43;;
35257;SDS011;21385;50.878;8.050;2023-02-28T08:35:20;0.20;;;0.20;;
35257;SDS011;21385;50.878;8.050;2023-02-28T08:37:49;0.80;;;0.43;;
35257;SDS011;21385;50.878;8.050;2023-02-28T08:40:15;0.45;;;0.45;;
35257;SDS011;21385;50.878;8.050;2023-02-28T08:42:45;0.08;;;0.08;;
35257;SDS011;21385;50.878;8.050;2023-02-28T08:45:12;0.88;;;0.15;;
35257;SDS011;21385;50.878;8.050;2023-02-28T08:47:39;0.20;;;0.20;;
35257;SDS011;21385;50.878;8.050;2023-02-28T08:50:05;0.22;;;0.22;;
35257;SDS011;21385;50.878;8.050;2023-02-28T08:52:31;0.10;;;0.10;;
35257;SDS011;21385;50.878;8.050;2023-02-28T08:54:57;0.30;;;0.30;;
35257;SDS011;21385;50.878;8.050;2023-02-28T08:57:23;0.30;;;0.30;;
35257;SDS011;21385;50.878;8.050;2023-02-28T08:59:51;0.30;;;0.30;;
35257;SDS011;21385;50.878;8.050;2023-02-28T09:02:17;0.32;;;0.32;;
35257;SDS011;21385;50.878;8.050;2023-02-28T09:04:43;0.45;;;0.45;;
35257;SDS011;21385;50.878;8.050;2023-02-28T09:07:10;0.28;;;0.28;;
35257;SDS011;21385;50.878;8.050;2023-02-28T09:09:36;0.57;;;0.57;;
35257;SDS011;21385;50.878;8.050;2023-02-28T09:12:02;1.25;;;0.50;;
35257;SDS011;21385;50.878;8.050;2023-02-28T09:14:28;0.20;;;0.20;;
35257;SDS011;21385;50.878;8.050;2023-02-28T09:16:54;1.23;;;0.47;;
35257;SDS011;21385;50.878;8.050;2023-02-28T09:19:20;0.28;;;0.28;;
35257;SDS011;21385;50.878;8.050;2023-02-28T09:21:47;0.40;;;0.22;;
35257;SDS011;21385;50.878;8.050;2023-02-28T09:24:13;0.13;;;0.13;;
35257;SDS011;21385;50.878;8.050;2023-02-28T09:26:40;0.17;;;0.17;;
35257;SDS011;21385;50.878;8.050;2023-02-28T09:29:06;0.30;;;0.30;;
35257;SDS011;21385;50.878;8.050;2023-02-28T09:31:32;1.08;;;0.40;;
35257;SDS011;21385;50.878;8.050;2023-02-28T09:33:58;0.35;;;0.30;;
35257;SDS011;21385;50.878;8.050;2023-02-28T09:36:24;0.55;;;0.55;;
35257;SDS011;21385;50.878;8.050;2023-02-28T09:38:51;0.75;;;0.40;;
35257;SDS011;21385;50.878;8.050;2023-02-28T09:41:27;0.95;;;0.65;;
35257;SDS011;21385;50.878;8.050;2023-02-28T09:44:00;0.10;;;0.10;;
35257;SDS011;21385;50.878;8.050;2023-02-28T09:48:57;1.00;;;0.60;;
35257;SDS011;21385;50.878;8.050;2023-02-28T09:51:43;12.02;;;0.55;;
35257;SDS011;21385;50.878;8.050;2023-02-28T09:54:18;0.35;;;0.30;;
35257;SDS011;21385;50.878;8.050;2023-02-28T09:56:49;0.88;;;0.60;;
35257;SDS011;21385;50.878;8.050;2023-02-28T09:59:31;0.20;;;0.20;;
35257;SDS011;21385;50.878;8.050;2023-02-28T10:09:51;0.77;;;0.68;;
35257;SDS011;21385;50.878;8.050;2023-02-28T10:12:17;0.22;;;0.17;;
35257;SDS011;21385;50.878;8.050;2023-02-28T10:14:46;0.35;;;0.35;;
35257;SDS011;21385;50.878;8.050;2023-02-28T10:22:11;0.30;;;0.30;;
35257;SDS011;21385;50.878;8.050;2023-02-28T10:24:43;0.45;;;0.45;;
35257;SDS011;21385;50.878;8.050;2023-02-28T10:29:46;2.38;;;0.93;;
35257;SDS011;21385;50.878;8.050;2023-02-28T10:32:14;0.20;;;0.20;;
35257;SDS011;21385;50.878;8.050;2023-02-28T10:34:41;0.35;;;0.35;;
35257;SDS011;21385;50.878;8.050;2023-02-28T10:37:07;0.82;;;0.60;;
35257;SDS011;21385;50.878;8.050;2023-02-28T10:42:02;1.17;;;0.65;;
35257;SDS011;21385;50.878;8.050;2023-02-28T10:44:28;1.20;;;0.77;;
35257;SDS011;21385;50.878;8.050;2023-02-28T10:46:55;0.80;;;0.80;;
35257;SDS011;21385;50.878;8.050;2023-02-28T10:49:25;1.23;;;0.60;;
35257;SDS011;21385;50.878;8.050;2023-02-28T10:51:57;0.43;;;0.43;;
35257;SDS011;21385;50.878;8.050;2023-02-28T10:59:41;0.63;;;0.63;;
35257;SDS011;21385;50.878;8.050;2023-02-28T11:04:54;1.45;;;0.77;;
35257;SDS011;21385;50.878;8.050;2023-02-28T11:07:21;0.40;;;0.40;;
35257;SDS011;21385;50.878;8.050;2023-02-28T11:09:49;0.40;;;0.40;;
35257;SDS011;21385;50.878;8.050;2023-02-28T11:12:20;1.58;;;0.88;;
35257;SDS011;21385;50.878;8.050;2023-02-28T11:14:47;0.63;;;0.63;;
35257;SDS011;21385;50.878;8.050;2023-02-28T11:17:19;1.98;;;0.98;;
35257;SDS011;21385;50.878;8.050;2023-02-28T11:19:49;0.65;;;0.43;;
35257;SDS011;21385;50.878;8.050;2023-02-28T11:22:19;0.57;;;0.57;;
35257;SDS011;21385;50.878;8.050;2023-02-28T11:24:49;0.38;;;0.38;;
35257;SDS011;21385;50.878;8.050;2023-02-28T11:27:42;0.55;;;0.55;;
35257;SDS011;21385;50.878;8.050;2023-02-28T11:38:27;0.60;;;0.60;;
35257;SDS011;21385;50.878;8.050;2023-02-28T11:43:30;0.40;;;0.40;;
35257;SDS011;21385;50.878;8.050;2023-02-28T11:46:01;0.47;;;0.47;;
35257;SDS011;21385;50.878;8.050;2023-02-28T11:53:55;1.20;;;1.02;;
35257;SDS011;21385;50.878;8.050;2023-02-28T12:02:15;0.80;;;0.80;;
35257;SDS011;21385;50.878;8.050;2023-02-28T12:07:37;2.53;;;0.95;;
35257;SDS011;21385;50.878;8.050;2023-02-28T12:12:43;4.18;;;1.10;;
35257;SDS011;21385;50.878;8.050;2023-02-28T12:21:14;0.80;;;0.80;;
35257;SDS011;21385;50.878;8.050;2023-02-28T12:26:41;1.60;;;0.77;;
35257;SDS011;21385;50.878;8.050;2023-02-28T12:29:27;1.70;;;1.00;;
35257;SDS011;21385;50.878;8.050;2023-02-28T12:32:27;1.00;;;0.90;;
35257;SDS011;21385;50.878;8.050;2023-02-28T12:40:15;1.05;;;0.80;;
35257;SDS011;21385;50.878;8.050;2023-02-28T12:42:46;2.83;;;1.25;;
35257;SDS011;21385;50.878;8.050;2023-02-28T12:45:39;0.65;;;0.65;;
35257;SDS011;21385;50.878;8.050;2023-02-28T12:48:06;0.85;;;0.80;;
35257;SDS011;21385;50.878;8.050;2023-02-28T12:50:35;3.35;;;1.15;;
35257;SDS011;21385;50.878;8.050;2023-02-28T13:09:11;0.98;;;0.80;;
35257;SDS011;21385;50.878;8.050;2023-02-28T13:15:00;1.23;;;1.13;;
35257;SDS011;21385;50.878;8.050;2023-02-28T13:17:00;0.80;;;0.80;;
35257;SDS011;21385;50.878;8.050;2023-02-28T13:22:16;1.52;;;1.15;;
35257;SDS011;21385;50.878;8.050;2023-02-28T13:25:04;2.75;;;1.17;;
35257;SDS011;21385;50.878;8.050;2023-02-28T13:27:52;2.45;;;0.88;;
35257;SDS011;21385;50.878;8.050;2023-02-28T13:38:34;3.50;;;1.20;;
35257;SDS011;21385;50.878;8.050;2023-02-28T13:44:00;1.23;;;0.80;;
35257;SDS011;21385;50.878;8.050;2023-02-28T13:46:36;1.70;;;0.73;;
35257;SDS011;21385;50.878;8.050;2023-02-28T13:51:51;0.82;;;0.80;;
35257;SDS011;21385;50.878;8.050;2023-02-28T13:59:31;1.85;;;1.42;;
35257;SDS011;21385;50.878;8.050;2023-02-28T14:05:05;6.90;;;1.25;;
35257;SDS011;21385;50.878;8.050;2023-02-28T14:07:48;1.23;;;1.13;;
35257;SDS011;21385;50.878;8.050;2023-02-28T14:10:21;1.50;;;1.17;;
35257;SDS011;21385;50.878;8.050;2023-02-28T14:13:00;1.10;;;1.00;;
35257;SDS011;21385;50.878;8.050;2023-02-28T14:20:58;1.30;;;1.00;;
35257;SDS011;21385;50.878;8.050;2023-02-28T14:23:50;1.15;;;1.00;;
35257;SDS011;21385;50.878;8.050;2023-02-28T14:35:45;5.07;;;1.45;;
35257;SDS011;21385;50.878;8.050;2023-02-28T14:38:28;1.00;;;0.88;;
35257;SDS011;21385;50.878;8.050;2023-02-28T14:40:58;1.13;;;1.00;;
35257;SDS011;21385;50.878;8.050;2023-02-28T14:43:28;1.15;;;0.90;;
35257;SDS011;21385;50.878;8.050;2023-02-28T14:45:57;0.90;;;0.88;;
35257;SDS011;21385;50.878;8.050;2023-02-28T14:48:28;4.47;;;1.42;;
35257;SDS011;21385;50.878;8.050;2023-02-28T14:50:56;1.92;;;1.25;;
35257;SDS011;21385;50.878;8.050;2023-02-28T14:53:23;2.90;;;1.23;;
35257;SDS011;21385;50.878;8.050;2023-02-28T14:55:52;1.05;;;0.90;;
35257;SDS011;21385;50.878;8.050;2023-02-28T14:58:22;1.17;;;1.10;;
35257;SDS011;21385;50.878;8.050;2023-02-28T15:00:53;1.13;;;1.02;;
35257;SDS011;21385;50.878;8.050;2023-02-28T15:03:23;3.75;;;1.27;;
35257;SDS011;21385;50.878;8.050;2023-02-28T15:06:00;1.65;;;1.38;;
35257;SDS011;21385;50.878;8.050;2023-02-28T15:08:28;3.20;;;1.85;;
35257;SDS011;21385;50.878;8.050;2023-02-28T15:10:58;1.77;;;1.23;;
35257;SDS011;21385;50.878;8.050;2023-02-28T15:13:31;1.20;;;1.10;;
35257;SDS011;21385;50.878;8.050;2023-02-28T15:16:01;1.02;;;1.00;;
35257;SDS011;21385;50.878;8.050;2023-02-28T15:21:21;1.15;;;1.02;;
35257;SDS011;21385;50.878;8.050;2023-02-28T15:23:52;1.75;;;1.30;;
35257;SDS011;21385;50.878;8.050;2023-02-28T15:26:22;1.35;;;1.25;;
35257;SDS011;21385;50.878;8.050;2023-02-28T15:28:52;1.15;;;1.05;;
35257;SDS011;21385;50.878;8.050;2023-02-28T15:36:26;3.97;;;1.10;;
35257;SDS011;21385;50.878;8.050;2023-02-28T15:38:56;2.55;;;1.67;;
35257;SDS011;21385;50.878;8.050;2023-02-28T15:41:29;1.05;;;1.00;;
35257;SDS011;21385;50.878;8.050;2023-02-28T15:44:14;4.00;;;1.73;;
35257;SDS011;21385;50.878;8.050;2023-02-28T15:46:43;1.65;;;1.17;;
35257;SDS011;21385;50.878;8.050;2023-02-28T15:52:16;1.25;;;0.95;;
35257;SDS011;21385;50.878;8.050;2023-02-28T15:57:53;4.28;;;1.40;;
35257;SDS011;21385;50.878;8.050;2023-02-28T16:00:22;1.27;;;1.13;;
35257;SDS011;21385;50.878;8.050;2023-02-28T16:02:50;1.45;;;1.23;;
35257;SDS011;21385;50.878;8.050;2023-02-28T16:05:26;1.10;;;1.00;;
35257;SDS011;21385;50.878;8.050;2023-02-28T16:07:58;2.53;;;1.20;;
35257;SDS011;21385;50.878;8.050;2023-02-28T16:10:26;1.92;;;1.25;;
35257;SDS011;21385;50.878;8.050;2023-02-28T16:12:56;1.30;;;1.20;;
35257;SDS011;21385;50.878;8.050;2023-02-28T16:15:27;2.15;;;1.10;;
35257;SDS011;21385;50.878;8.050;2023-02-28T16:17:58;3.00;;;1.42;;
35257;SDS011;21385;50.878;8.050;2023-02-28T16:20:29;1.45;;;1.17;;
35257;SDS011;21385;50.878;8.050;2023-02-28T16:22:55;0.80;;;0.80;;
35257;SDS011;21385;50.878;8.050;2023-02-28T16:25:27;4.32;;;0.90;;
35257;SDS011;21385;50.878;8.050;2023-02-28T16:28:29;1.08;;;0.98;;
35257;SDS011;21385;50.878;8.050;2023-02-28T16:30:56;1.77;;;1.25;;
35257;SDS011;21385;50.878;8.050;2023-02-28T16:33:22;1.92;;;1.20;;
35257;SDS011;21385;50.878;8.050;2023-02-28T16:35:48;1.73;;;1.48;;
35257;SDS011;21385;50.878;8.050;2023-02-28T16:38:14;1.63;;;1.25;;
35257;SDS011;21385;50.878;8.050;2023-02-28T16:40:40;3.05;;;1.35;;
35257;SDS011;21385;50.878;8.050;2023-02-28T16:43:12;0.75;;;0.75;;
35257;SDS011;21385;50.878;8.050;2023-02-28T16:45:41;3.33;;;1.05;;
35257;SDS011;21385;50.878;8.050;2023-02-28T16:48:07;1.00;;;0.90;;
35257;SDS011;21385;50.878;8.050;2023-02-28T16:50:38;0.80;;;0.80;;
35257;SDS011;21385;50.878;8.050;2023-02-28T16:53:04;2.67;;;1.17;;
35257;SDS011;21385;50.878;8.050;2023-02-28T16:55:29;1.63;;;1.05;;
35257;SDS011;21385;50.878;8.050;2023-02-28T16:57:56;1.50;;;1.20;;
35257;SDS011;21385;50.878;8.050;2023-02-28T17:00:23;2.08;;;1.20;;
35257;SDS011;21385;50.878;8.050;2023-02-28T17:02:50;0.90;;;0.90;;
35257;SDS011;21385;50.878;8.050;2023-02-28T17:05:16;0.98;;;0.98;;
35257;SDS011;21385;50.878;8.050;2023-02-28T17:07:43;1.02;;;0.85;;
35257;SDS011;21385;50.878;8.050;2023-02-28T17:10:16;1.02;;;0.93;;
35257;SDS011;21385;50.878;8.050;2023-02-28T17:12:46;0.88;;;0.88;;
35257;SDS011;21385;50.878;8.050;2023-02-28T17:15:13;1.17;;;0.90;;
35257;SDS011;21385;50.878;8.050;2023-02-28T17:17:41;1.38;;;1.15;;
35257;SDS011;21385;50.878;8.050;2023-02-28T17:20:10;1.20;;;1.10;;
35257;SDS011;21385;50.878;8.050;2023-02-28T17:22:41;0.77;;;0.77;;
35257;SDS011;21385;50.878;8.050;2023-02-28T17:25:07;1.10;;;0.90;;
35257;SDS011;21385;50.878;8.050;2023-02-28T17:27:35;2.30;;;1.38;;
35257;SDS011;21385;50.878;8.050;2023-02-28T17:30:01;1.38;;;0.90;;
35257;SDS011;21385;50.878;8.050;2023-02-28T17:32:28;0.65;;;0.65;;
35257;SDS011;21385;50.878;8.050;2023-02-28T17:34:53;1.88;;;1.20;;
35257;SDS011;21385;50.878;8.050;2023-02-28T17:37:19;2.47;;;0.80;;
35257;SDS011;21385;50.878;8.050;2023-02-28T17:39:44;1.10;;;1.00;;
35257;SDS011;21385;50.878;8.050;2023-02-28T17:42:10;2.58;;;0.90;;
35257;SDS011;21385;50.878;8.050;2023-02-28T17:44:37;0.95;;;0.75;;
35257;SDS011;21385;50.878;8.050;2023-02-28T17:47:02;5.55;;;0.90;;
35257;SDS011;21385;50.878;8.050;2023-02-28T17:49:28;1.40;;;0.60;;
35257;SDS011;21385;50.878;8.050;2023-02-28T17:51:54;1.55;;;0.82;;
35257;SDS011;21385;50.878;8.050;2023-02-28T17:54:20;9.73;;;1.08;;
35257;SDS011;21385;50.878;8.050;2023-02-28T17:56:45;8.48;;;1.38;;